Time;durP1;ratioP1;P1;durP2;ratioP2;P2;SDS_P1;SDS_P2;PMS_P1;PMS_P2;Temp;Humidity;BMP_temperature;BMP_pressure;BME280_temperature;BME280_humidity;BME280_pressure;Samples;Min_cycle;Max_cycle;Signal;HPM_P1;HPM_P2
2021/11/12 00:14:22;;;;;;;1.10;1.00;;;21.20;53.70;;;;;;6192670;28;20046;-69
2021/11/12 00:17:31;;;;;;;1.40;1.13;;;21.20;53.70;;;;;;6192774;28;20551;-69
2021/11/12 00:20:31;;;;;;;2.10;1.10;;;21.20;53.70;;;;;;6215858;28;20033;-70
2021/11/12 00:23:35;;;;;;;1.08;0.98;;;21.20;53.70;;;;;;6232247;28;20029;-70
2021/11/12 00:26:36;;;;;;;1.50;1.20;;;21.20;53.70;;;;;;6198966;28;20030;-69
2021/11/12 00:29:43;;;;;;;2.33;1.23;;;21.20;53.70;;;;;;6187343;28;20045;-69
2021/11/12 00:39:30;;;;;;;0.90;0.90;;;21.20;53.70;;;;;;6216519;28;20039;-69
2021/11/12 00:42:44;;;;;;;1.25;1.00;;;21.20;53.60;;;;;;6215359;28;20215;-69
2021/11/12 00:45:57;;;;;;;1.33;1.20;;;21.20;53.70;;;;;;6231870;28;20034;-68
2021/11/12 00:49:00;;;;;;;1.25;0.90;;;21.20;53.60;;;;;;6195018;28;20054;-70
2021/11/12 00:52:38;;;;;;;1.10;0.98;;;21.20;53.70;;;;;;6185890;28;20026;-67
2021/11/12 00:55:27;;;;;;;1.08;0.98;;;21.20;53.70;;;;;;6167711;28;20023;-69
2021/11/12 00:58:28;;;;;;;1.52;1.05;;;21.20;53.70;;;;;;6183488;28;20038;-69
2021/11/12 01:01:30;;;;;;;1.10;1.00;;;21.20;53.70;;;;;;6192086;28;20105;-69
2021/11/12 01:04:31;;;;;;;1.10;1.00;;;21.20;53.70;;;;;;6214286;28;20246;-69
2021/11/12 01:07:32;;;;;;;1.17;1.08;;;21.20;53.70;;;;;;6210214;28;20022;-69
2021/11/12 01:10:33;;;;;;;1.40;1.10;;;21.20;53.70;;;;;;6191981;28;20035;-69
2021/11/12 01:13:35;;;;;;;0.80;0.80;;;21.20;53.70;;;;;;6196092;28;20070;-69
2021/11/12 01:16:36;;;;;;;1.55;1.02;;;21.20;53.70;;;;;;6190475;28;20081;-69
2021/11/12 01:19:37;;;;;;;1.40;1.15;;;21.20;53.70;;;;;;6227377;28;20030;-69
2021/11/12 01:22:39;;;;;;;1.15;0.85;;;21.20;53.70;;;;;;6215762;28;20037;-69
2021/11/12 01:25:40;;;;;;;1.55;1.10;;;21.20;53.70;;;;;;6216077;28;20041;-68
2021/11/12 01:28:41;;;;;;;1.45;1.13;;;21.20;53.70;;;;;;6193537;28;20027;-68
2021/11/12 01:31:42;;;;;;;1.00;0.90;;;21.20;53.70;;;;;;6198896;28;20531;-70
2021/11/12 01:34:42;;;;;;;1.30;0.98;;;21.20;53.70;;;;;;6219807;28;20181;-70
2021/11/12 01:37:44;;;;;;;1.13;0.90;;;21.20;53.70;;;;;;6208184;28;20065;-69
2021/11/12 01:40:46;;;;;;;1.90;1.25;;;21.20;53.70;;;;;;6197012;28;20058;-69
2021/11/12 01:43:51;;;;;;;1.20;1.00;;;21.20;53.80;;;;;;6195243;28;20125;-69
2021/11/12 01:47:11;;;;;;;1.52;0.93;;;21.20;53.70;;;;;;6201094;28;20030;-68
2021/11/12 01:50:17;;;;;;;1.35;1.20;;;21.20;53.70;;;;;;6219066;28;20033;-69
2021/11/12 01:53:27;;;;;;;1.38;1.17;;;21.20;53.80;;;;;;6220561;28;20026;-69
2021/11/12 01:59:32;;;;;;;1.10;0.90;;;21.20;53.80;;;;;;6220351;28;20084;-69
2021/11/12 02:02:32;;;;;;;1.30;1.08;;;21.20;53.80;;;;;;6211349;28;20483;-69
2021/11/12 02:05:33;;;;;;;0.98;0.82;;;21.20;53.80;;;;;;6194825;28;20504;-69
2021/11/12 02:08:33;;;;;;;1.35;1.00;;;21.20;53.80;;;;;;6188919;28;20062;-69
2021/11/12 02:11:34;;;;;;;1.20;0.98;;;21.20;53.80;;;;;;6220205;28;20555;-69
2021/11/12 02:14:36;;;;;;;1.08;0.95;;;21.20;53.80;;;;;;6202256;28;20377;-69
2021/11/12 02:17:40;;;;;;;1.15;0.93;;;21.20;53.80;;;;;;6197052;28;20228;-69
2021/11/12 02:21:02;;;;;;;1.05;0.90;;;21.20;53.80;;;;;;6235335;28;20029;-69
2021/11/12 02:24:06;;;;;;;1.35;1.10;;;21.20;53.80;;;;;;6206782;28;20439;-68
2021/11/12 02:27:12;;;;;;;1.42;0.80;;;21.20;53.80;;;;;;6195010;28;20439;-69
2021/11/12 02:30:21;;;;;;;1.48;1.15;;;21.20;53.80;;;;;;6195812;28;20583;-69
2021/11/12 02:33:24;;;;;;;1.05;0.95;;;21.20;53.80;;;;;;6228944;28;20075;-69
2021/11/12 02:36:24;;;;;;;1.00;0.90;;;21.20;53.80;;;;;;6216959;28;20018;-70
2021/11/12 02:39:25;;;;;;;1.33;1.05;;;21.20;53.80;;;;;;6194940;28;20026;-69
2021/11/12 02:42:26;;;;;;;1.30;1.10;;;21.20;53.80;;;;;;6203108;28;20357;-69
2021/11/12 02:45:27;;;;;;;1.40;0.88;;;21.20;53.80;;;;;;6218597;28;20536;-68
2021/11/12 02:48:33;;;;;;;1.05;0.95;;;21.20;53.80;;;;;;6219174;28;20152;-69
2021/11/12 02:51:35;;;;;;;1.42;1.00;;;21.20;53.80;;;;;;6219246;28;20033;-69
2021/11/12 02:54:37;;;;;;;0.95;0.88;;;21.20;53.80;;;;;;6218801;28;20021;-70
2021/11/12 02:57:38;;;;;;;0.75;0.75;;;21.20;53.80;;;;;;6219033;28;20038;-69
2021/11/12 03:00:41;;;;;;;1.05;0.82;;;21.20;53.80;;;;;;6219234;28;20032;-69
2021/11/12 03:03:42;;;;;;;1.05;0.95;;;21.20;53.80;;;;;;6217387;28;20029;-69
2021/11/12 03:06:44;;;;;;;1.08;0.98;;;21.20;53.80;;;;;;6233761;28;20121;-69
2021/11/12 03:09:44;;;;;;;1.38;0.90;;;21.20;53.80;;;;;;6213650;28;20058;-69
2021/11/12 03:12:46;;;;;;;1.52;1.00;;;21.20;53.80;;;;;;6214064;28;20496;-69
2021/11/12 03:15:46;;;;;;;1.30;1.10;;;21.20;53.90;;;;;;6193032;28;20028;-69
2021/11/12 03:18:47;;;;;;;1.20;1.00;;;21.20;53.90;;;;;;6194111;28;20027;-70
2021/11/12 03:21:48;;;;;;;1.00;0.90;;;21.20;54.50;;;;;;6194295;28;20037;-69
2021/11/12 03:24:53;;;;;;;0.73;0.73;;;21.20;53.90;;;;;;6214827;28;20018;-69
2021/11/12 03:28:08;;;;;;;1.40;0.93;;;21.20;53.80;;;;;;6208296;28;20033;-69
2021/11/12 04:01:35;;;;;;;2.03;0.93;;;21.20;53.80;;;;;;6193387;28;20030;-69
2021/11/12 04:20:50;;;;;;;1.08;0.98;;;21.20;53.90;;;;;;6217467;28;20549;-68
2021/11/12 04:31:12;;;;;;;0.80;0.80;;;21.20;53.80;;;;;;6206076;28;20066;-69
2021/11/12 04:41:12;;;;;;;1.23;1.08;;;21.20;53.90;;;;;;6192716;28;20109;-69
2021/11/12 05:10:14;;;;;;;0.73;0.68;;;21.10;53.80;;;;;;6216306;28;20533;-69
2021/11/12 05:50:11;;;;;;;1.05;0.90;;;21.20;53.80;;;;;;6215959;28;20472;-68
2021/11/12 05:56:26;;;;;;;0.90;0.80;;;21.20;53.80;;;;;;6206718;28;20031;-69
2021/11/12 05:59:26;;;;;;;0.80;0.80;;;21.20;53.80;;;;;;6214280;28;20565;-69
2021/11/12 06:02:27;;;;;;;0.90;0.80;;;21.20;53.90;;;;;;6198990;28;20274;-69
2021/11/12 06:05:27;;;;;;;1.10;1.00;;;21.20;53.80;;;;;;6190603;28;20030;-69
2021/11/12 06:08:28;;;;;;;0.70;0.70;;;21.20;53.90;;;;;;6202834;28;20391;-68
2021/11/12 06:11:28;;;;;;;1.30;1.00;;;21.20;53.90;;;;;;6214032;28;20026;-69
2021/11/12 06:14:29;;;;;;;0.88;0.88;;;21.20;53.90;;;;;;6195411;28;20037;-69
2021/11/12 06:17:30;;;;;;;1.00;0.90;;;21.20;53.90;;;;;;6198428;28;20022;-69
2021/11/12 06:20:31;;;;;;;1.23;0.90;;;21.20;53.90;;;;;;6220594;28;20096;-68
2021/11/12 06:23:31;;;;;;;0.80;0.80;;;21.20;53.90;;;;;;6209187;28;20039;-69
2021/11/12 06:26:32;;;;;;;1.10;1.00;;;21.20;53.80;;;;;;6211138;28;20026;-69
2021/11/12 06:29:33;;;;;;;0.68;0.68;;;21.20;53.70;;;;;;6213140;28;20031;-69
2021/11/12 06:32:34;;;;;;;1.20;1.00;;;21.20;53.70;;;;;;6205225;28;20029;-69
2021/11/12 06:35:34;;;;;;;1.20;0.88;;;21.20;53.60;;;;;;6218808;28;20022;-69
2021/11/12 06:38:36;;;;;;;0.98;0.88;;;21.20;53.60;;;;;;6220151;28;20036;-69
2021/11/12 06:41:53;;;;;;;1.00;0.85;;;21.20;53.70;;;;;;6219727;28;20018;-69
2021/11/12 06:51:33;;;;;;;0.70;0.70;;;21.20;53.60;;;;;;6195750;28;20106;-69
2021/11/12 06:54:34;;;;;;;1.60;1.00;;;21.20;53.60;;;;;;6219135;28;20075;-69
2021/11/12 06:57:35;;;;;;;0.98;0.82;;;21.20;53.70;;;;;;6210657;28;20023;-70
2021/11/12 07:00:35;;;;;;;1.42;1.15;;;21.20;53.70;;;;;;6196886;28;20392;-71
2021/11/12 07:03:36;;;;;;;1.30;1.10;;;21.20;53.70;;;;;;6210594;28;20464;-69
2021/11/12 07:06:37;;;;;;;1.20;1.00;;;21.20;53.70;;;;;;6201268;28;20131;-70
2021/11/12 07:09:39;;;;;;;1.50;1.10;;;21.20;53.70;;;;;;6205368;28;20035;-70
2021/11/12 07:12:40;;;;;;;1.13;1.02;;;21.20;53.70;;;;;;6204735;28;20072;-70
2021/11/12 07:15:41;;;;;;;1.08;0.90;;;21.20;53.70;;;;;;6199700;28;20023;-69
2021/11/12 07:18:41;;;;;;;1.08;0.88;;;21.20;53.70;;;;;;6213340;28;20049;-72
2021/11/12 07:21:43;;;;;;;1.15;0.95;;;21.20;53.70;;;;;;6221912;28;20022;-70
2021/11/12 07:24:43;;;;;;;1.10;1.00;;;21.20;53.70;;;;;;6220561;28;20018;-71
2021/11/12 07:27:45;;;;;;;0.93;0.90;;;21.20;53.70;;;;;;6213347;28;20350;-70
2021/11/12 07:30:46;;;;;;;1.42;1.02;;;21.20;53.70;;;;;;6200761;28;20045;-71
2021/11/12 07:33:48;;;;;;;1.00;0.90;;;21.20;53.70;;;;;;6196810;28;20019;-71
2021/11/12 07:36:52;;;;;;;1.05;0.85;;;21.20;53.70;;;;;;6197112;28;20027;-71
2021/11/12 07:39:53;;;;;;;1.15;1.00;;;21.20;53.80;;;;;;6198679;28;20023;-71
2021/11/12 07:43:16;;;;;;;0.85;0.80;;;21.20;53.80;;;;;;6197024;28;20033;-71
2021/11/12 07:49:34;;;;;;;1.63;1.13;;;21.20;53.80;;;;;;6175079;28;20105;-71
2021/11/12 07:52:38;;;;;;;1.38;1.10;;;21.30;53.90;;;;;;6183089;28;20045;-71
2021/11/12 07:55:38;;;;;;;1.38;1.05;;;21.20;53.80;;;;;;6198389;28;20105;-71
2021/11/12 07:58:40;;;;;;;1.10;1.00;;;21.20;53.80;;;;;;6198033;28;20026;-71
2021/11/12 08:01:41;;;;;;;2.10;1.38;;;21.20;53.80;;;;;;6198725;28;20030;-71
2021/11/12 08:04:47;;;;;;;1.67;1.15;;;21.30;53.90;;;;;;6220970;28;20033;-71
2021/11/12 08:07:48;;;;;;;1.73;1.17;;;21.20;53.80;;;;;;6217680;28;20096;-70
2021/11/12 08:10:53;;;;;;;1.48;1.25;;;21.20;53.80;;;;;;6198058;28;20495;-70
2021/11/12 08:14:01;;;;;;;1.52;1.13;;;21.30;53.90;;;;;;6196292;28;20046;-71
2021/11/12 08:20:16;;;;;;;1.50;1.10;;;21.20;53.80;;;;;;6197994;28;20029;-71
2021/11/12 08:23:26;;;;;;;2.13;1.23;;;21.30;53.90;;;;;;6197816;28;20033;-71
2021/11/12 08:29:47;;;;;;;1.50;1.27;;;21.30;53.80;;;;;;6197887;28;20034;-71
2021/11/12 08:36:02;;;;;;;1.83;1.10;;;21.30;53.90;;;;;;6197136;28;20030;-71
2021/11/12 08:42:30;;;;;;;1.33;1.00;;;21.30;53.90;;;;;;6197379;28;20030;-70
2021/11/12 08:45:36;;;;;;;1.75;1.10;;;21.20;53.80;;;;;;6218721;28;20084;-70
2021/11/12 08:51:40;;;;;;;1.85;1.15;;;21.20;53.80;;;;;;6220114;28;20026;-71
2021/11/12 08:54:43;;;;;;;1.38;1.13;;;21.30;53.90;;;;;;6215681;28;20021;-71
2021/11/12 08:57:44;;;;;;;1.20;1.10;;;21.30;53.90;;;;;;6209903;28;20439;-71
2021/11/12 09:00:45;;;;;;;1.50;0.90;;;21.30;53.90;;;;;;6195848;28;20077;-71
2021/11/12 09:03:47;;;;;;;1.17;1.08;;;21.30;53.90;;;;;;6212513;28;20023;-71
2021/11/12 09:06:48;;;;;;;1.13;0.98;;;21.30;53.90;;;;;;6196948;28;20031;-71
2021/11/12 09:09:54;;;;;;;1.23;0.90;;;21.30;53.90;;;;;;6197008;28;20030;-71
2021/11/12 09:13:09;;;;;;;2.13;1.30;;;21.30;53.90;;;;;;6195581;28;20404;-71
2021/11/12 09:16:13;;;;;;;5.75;1.15;;;21.30;53.90;;;;;;6197232;28;20026;-70
2021/11/12 09:19:14;;;;;;;1.50;1.10;;;21.30;53.80;;;;;;6195839;28;20018;-71
2021/11/12 09:22:31;;;;;;;2.08;0.90;;;21.30;53.90;;;;;;6196621;28;20027;-71
2021/11/12 09:25:32;;;;;;;1.60;1.00;;;21.30;53.90;;;;;;6195579;28;20480;-72
2021/11/12 09:28:34;;;;;;;1.25;0.95;;;21.30;53.80;;;;;;6196557;28;20069;-71
2021/11/12 09:31:34;;;;;;;1.45;1.33;;;21.30;53.90;;;;;;6211717;28;20375;-71
2021/11/12 09:34:37;;;;;;;1.25;1.08;;;21.30;53.90;;;;;;6196354;28;20109;-71
2021/11/12 09:37:38;;;;;;;1.65;1.00;;;21.30;53.90;;;;;;6196959;28;20026;-70
2021/11/12 09:40:39;;;;;;;1.00;0.82;;;21.30;53.90;;;;;;6196527;28;20037;-71
2021/11/12 09:43:40;;;;;;;1.05;0.95;;;21.30;54.60;;;;;;6196560;28;20034;-71
2021/11/12 09:46:41;;;;;;;1.05;0.95;;;21.30;53.90;;;;;;6196385;28;20422;-71
2021/11/12 09:49:42;;;;;;;1.02;0.93;;;21.30;53.90;;;;;;6197922;28;20528;-71
2021/11/12 09:52:43;;;;;;;1.75;1.10;;;21.30;53.80;;;;;;6201243;28;20027;-71
2021/11/12 09:55:45;;;;;;;1.77;1.10;;;21.30;53.80;;;;;;6201620;28;20471;-71
2021/11/12 09:58:48;;;;;;;1.13;0.93;;;21.30;54.50;;;;;;6199828;28;20023;-71
2021/11/12 10:01:48;;;;;;;1.20;0.90;;;21.30;53.80;;;;;;6200105;28;20030;-71
2021/11/12 10:04:50;;;;;;;2.40;1.02;;;21.30;53.80;;;;;;6201198;28;20057;-70
2021/11/12 10:07:50;;;;;;;1.05;0.95;;;21.30;53.80;;;;;;6199588;28;20026;-71
2021/11/12 10:10:54;;;;;;;1.48;1.20;;;21.30;53.80;;;;;;6200974;28;20476;-71
2021/11/12 10:14:16;;;;;;;2.45;1.27;;;21.30;53.80;;;;;;6199376;28;20072;-71
2021/11/12 10:17:19;;;;;;;1.33;1.20;;;21.30;53.80;;;;;;6200563;28;20472;-71
2021/11/12 10:20:22;;;;;;;1.10;1.00;;;21.30;53.90;;;;;;6200300;28;20033;-70
2021/11/12 10:23:30;;;;;;;1.88;1.17;;;21.30;53.80;;;;;;6200447;28;20030;-71
2021/11/12 10:26:32;;;;;;;1.40;1.17;;;21.30;54.50;;;;;;6209569;28;20045;-71
2021/11/12 10:29:40;;;;;;;1.10;1.00;;;21.30;53.80;;;;;;6200315;28;20044;-71
2021/11/12 10:32:42;;;;;;;1.35;0.80;;;21.30;53.90;;;;;;6199875;28;20031;-71
2021/11/12 10:35:50;;;;;;;1.17;1.00;;;21.30;53.80;;;;;;6200178;28;20408;-71
2021/11/12 10:38:51;;;;;;;1.10;0.95;;;21.30;53.80;;;;;;6205957;28;20460;-71
2021/11/12 10:41:55;;;;;;;1.30;0.98;;;21.30;53.80;;;;;;6200327;28;20311;-71
2021/11/12 10:44:59;;;;;;;1.98;1.10;;;21.30;53.80;;;;;;6199817;28;20106;-71
2021/11/12 10:48:05;;;;;;;1.05;0.95;;;21.30;53.90;;;;;;6199815;28;20073;-71
2021/11/12 10:51:18;;;;;;;1.27;1.00;;;21.30;53.90;;;;;;6199942;28;20033;-71
2021/11/12 10:54:56;;;;;;;1.17;1.05;;;21.30;53.80;;;;;;6199622;28;20395;-71
2021/11/12 10:58:12;;;;;;;1.15;0.80;;;21.30;53.80;;;;;;6199488;28;20101;-70
2021/11/12 11:01:12;;;;;;;1.10;1.00;;;21.30;53.80;;;;;;6223156;28;20034;-71
2021/11/12 11:04:20;;;;;;;0.88;0.88;;;21.30;53.80;;;;;;6202573;28;20050;-71
2021/11/12 11:07:23;;;;;;;1.02;0.90;;;21.30;53.80;;;;;;6199422;28;20037;-71
2021/11/12 11:10:35;;;;;;;1.10;0.90;;;21.30;53.80;;;;;;6199375;28;20033;-71
2021/11/12 11:13:38;;;;;;;1.63;1.02;;;21.30;53.90;;;;;;6198493;28;20046;-71
2021/11/12 11:16:40;;;;;;;1.20;0.98;;;21.30;53.80;;;;;;6198850;28;20018;-71
2021/11/12 11:19:40;;;;;;;1.10;0.98;;;21.30;54.50;;;;;;6198949;28;20408;-70
2021/11/12 11:22:48;;;;;;;1.05;0.90;;;21.30;53.80;;;;;;6199479;28;20030;-71
2021/11/12 11:26:01;;;;;;;0.70;0.70;;;21.30;53.80;;;;;;6205662;28;20065;-71
2021/11/12 11:29:03;;;;;;;1.33;1.02;;;21.30;53.80;;;;;;6174956;28;20023;-71
2021/11/12 11:32:05;;;;;;;1.15;0.98;;;21.30;53.80;;;;;;6182149;28;20034;-71
2021/11/12 11:35:07;;;;;;;1.00;0.90;;;21.30;53.90;;;;;;6197701;28;20034;-70
2021/11/12 11:38:08;;;;;;;0.73;0.73;;;21.30;53.90;;;;;;6213953;28;20073;-71
2021/11/12 11:41:11;;;;;;;0.98;0.70;;;21.30;53.80;;;;;;6199013;28;20050;-71
2021/11/12 11:44:13;;;;;;;1.17;0.80;;;21.30;53.80;;;;;;6198462;28;20267;-71
2021/11/12 11:47:19;;;;;;;1.20;1.00;;;21.30;53.80;;;;;;6198440;28;20023;-70
2021/11/12 11:50:22;;;;;;;0.90;0.80;;;21.30;53.80;;;;;;6198597;28;20375;-71
2021/11/12 11:53:45;;;;;;;1.00;0.80;;;21.30;53.80;;;;;;6196943;28;20033;-71
2021/11/12 11:56:50;;;;;;;0.70;0.70;;;21.30;53.90;;;;;;6200346;28;20026;-71
2021/11/12 12:00:20;;;;;;;0.85;0.70;;;21.30;53.80;;;;;;6222649;28;20026;-71
2021/11/12 12:03:24;;;;;;;0.68;0.65;;;21.30;53.80;;;;;;6207697;28;20049;-71
2021/11/12 12:06:25;;;;;;;1.15;0.95;;;21.30;53.80;;;;;;6197104;28;20081;-71
2021/11/12 12:09:50;;;;;;;0.70;0.70;;;21.30;53.90;;;;;;6196600;28;20113;-71
2021/11/12 12:12:56;;;;;;;1.10;0.80;;;21.30;53.90;;;;;;6196884;28;20462;-71
2021/11/12 12:16:06;;;;;;;1.27;0.90;;;21.30;53.80;;;;;;6197116;28;20510;-71
2021/11/12 12:19:54;;;;;;;0.65;0.65;;;21.30;53.80;;;;;;6196405;28;20317;-71
2021/11/12 12:36:59;;;;;;;1.17;0.80;;;21.30;53.80;;;;;;6198158;28;20109;-71
2021/11/12 13:21:46;;;;;;;1.10;0.90;;;21.30;53.80;;;;;;6197212;28;20113;-71
2021/11/12 13:24:43;;;;;;;0.75;0.65;;;21.30;53.80;;;;;;6189613;28;20034;-71
2021/11/12 13:27:44;;;;;;;0.80;0.80;;;21.30;53.80;;;;;;6172831;28;20023;-71
2021/11/12 13:31:05;;;;;;;0.95;0.80;;;21.30;53.80;;;;;;6171639;28;20389;-71
2021/11/12 13:34:07;;;;;;;1.08;0.75;;;21.30;53.80;;;;;;6171097;28;20026;-71
2021/11/12 13:37:27;;;;;;;1.33;1.20;;;21.30;53.80;;;;;;6172600;28;20026;-71
2021/11/12 13:40:34;;;;;;;0.93;0.82;;;21.30;53.80;;;;;;6172523;28;20022;-71
2021/11/12 13:43:41;;;;;;;0.80;0.80;;;21.30;53.80;;;;;;6210273;28;20026;-71
2021/11/12 13:47:03;;;;;;;0.93;0.80;;;21.30;53.80;;;;;;6220786;28;20360;-71
2021/11/12 13:50:05;;;;;;;1.23;1.08;;;21.30;53.80;;;;;;6221100;28;20506;-71
2021/11/12 13:53:06;;;;;;;0.85;0.85;;;21.30;53.70;;;;;;6219697;28;20057;-71
2021/11/12 13:56:10;;;;;;;1.13;0.80;;;21.30;53.70;;;;;;6220725;28;20024;-71
2021/11/12 13:59:14;;;;;;;1.38;0.85;;;21.30;53.70;;;;;;6219360;28;20034;-71
2021/11/12 14:02:14;;;;;;;1.20;0.95;;;21.30;53.70;;;;;;6220444;28;20069;-71
2021/11/12 14:05:15;;;;;;;0.93;0.73;;;21.30;53.70;;;;;;6220728;28;20461;-71
2021/11/12 14:08:16;;;;;;;0.77;0.73;;;21.30;53.70;;;;;;6220423;28;20028;-71
2021/11/12 14:11:26;;;;;;;1.10;0.82;;;21.30;53.70;;;;;;6220504;28;20018;-71
2021/11/12 14:14:28;;;;;;;0.60;0.60;;;21.30;53.70;;;;;;6191188;28;20035;-71
2021/11/12 14:17:31;;;;;;;1.92;0.85;;;21.30;53.70;;;;;;6204738;28;20365;-71
2021/11/12 14:20:33;;;;;;;1.02;0.80;;;21.30;53.70;;;;;;6195758;28;20092;-71
2021/11/12 14:23:54;;;;;;;1.55;0.88;;;21.30;53.70;;;;;;6218335;28;20395;-71
2021/11/12 14:30:23;;;;;;;0.82;0.70;;;21.30;53.80;;;;;;6213683;28;20026;-71
2021/11/12 14:36:45;;;;;;;0.88;0.70;;;21.30;53.80;;;;;;6221514;28;20028;-71
2021/11/12 14:40:06;;;;;;;0.80;0.70;;;21.30;53.80;;;;;;6223101;28;20022;-71
2021/11/12 14:46:39;;;;;;;1.02;0.80;;;21.30;53.80;;;;;;6224102;28;20026;-71
2021/11/12 14:49:44;;;;;;;0.85;0.77;;;21.30;53.70;;;;;;6175515;28;20067;-71
2021/11/12 14:53:24;;;;;;;0.98;0.88;;;21.30;53.70;;;;;;6176872;28;20477;-71
2021/11/12 14:56:27;;;;;;;0.80;0.80;;;21.30;53.70;;;;;;6223687;28;20065;-71
2021/11/12 14:59:28;;;;;;;1.15;0.80;;;21.30;53.80;;;;;;6199644;28;20053;-72
2021/11/12 15:02:31;;;;;;;0.90;0.77;;;21.30;53.80;;;;;;6199118;28;20022;-71
2021/11/12 15:05:32;;;;;;;1.08;0.88;;;21.30;53.70;;;;;;6199554;28;20037;-71
2021/11/12 15:08:34;;;;;;;3.42;0.90;;;21.30;53.70;;;;;;6211162;28;20026;-71
2021/11/12 15:11:35;;;;;;;0.77;0.73;;;21.30;53.70;;;;;;6222270;28;20081;-71
2021/11/12 15:14:45;;;;;;;0.80;0.75;;;21.30;53.70;;;;;;6203913;28;20125;-71
2021/11/12 15:17:49;;;;;;;0.82;0.77;;;21.30;53.70;;;;;;6201471;28;20104;-72
2021/11/12 15:20:51;;;;;;;1.40;1.00;;;21.30;53.70;;;;;;6223506;28;20030;-71
2021/11/12 15:27:14;;;;;;;0.85;0.80;;;21.30;53.70;;;;;;6199106;28;20030;-71
2021/11/12 15:30:25;;;;;;;2.38;1.02;;;21.30;53.70;;;;;;6199218;28;20022;-71
2021/11/12 15:33:26;;;;;;;1.13;0.90;;;21.30;53.70;;;;;;6198574;28;20022;-71
2021/11/12 15:36:26;;;;;;;0.70;0.68;;;21.30;53.70;;;;;;6198895;28;20018;-71
2021/11/12 15:46:22;;;;;;;1.10;1.00;;;21.30;53.70;;;;;;6199528;28;20026;-71
2021/11/12 15:49:24;;;;;;;1.38;0.98;;;21.30;53.70;;;;;;6213327;28;20520;-71
2021/11/12 15:52:51;;;;;;;0.85;0.80;;;21.30;53.70;;;;;;6221813;28;20128;-71
2021/11/12 15:55:55;;;;;;;0.80;0.80;;;21.30;54.40;;;;;;6222190;28;20030;-71
2021/11/12 16:08:45;;;;;;;1.35;0.90;;;21.30;53.70;;;;;;6222393;28;20029;-71
2021/11/12 16:14:58;;;;;;;1.80;1.08;;;21.30;53.70;;;;;;6199227;28;20046;-70
2021/11/12 16:18:08;;;;;;;0.77;0.68;;;21.30;53.70;;;;;;6197516;28;20029;-71
2021/11/12 16:27:47;;;;;;;0.70;0.70;;;21.30;53.70;;;;;;6197467;28;20073;-71
2021/11/12 16:30:54;;;;;;;1.42;1.00;;;21.30;53.70;;;;;;6188043;28;20022;-71
2021/11/12 16:33:58;;;;;;;1.45;1.00;;;21.30;53.70;;;;;;6188070;28;20035;-71
2021/11/12 16:37:01;;;;;;;1.00;0.80;;;21.30;53.70;;;;;;6180406;28;20026;-71
2021/11/12 16:40:06;;;;;;;0.70;0.70;;;21.30;53.70;;;;;;6197494;28;20023;-71
2021/11/12 16:46:41;;;;;;;1.10;1.00;;;21.30;53.70;;;;;;6197493;28;20045;-71
2021/11/12 16:49:54;;;;;;;1.33;0.98;;;21.30;53.70;;;;;;6195877;28;20475;-71
2021/11/12 16:53:03;;;;;;;1.05;0.95;;;21.30;53.70;;;;;;6208055;28;20026;-71
2021/11/12 16:59:13;;;;;;;3.13;1.02;;;21.30;53.70;;;;;;6199947;28;20105;-71
2021/11/12 17:02:21;;;;;;;2.17;1.00;;;21.30;53.70;;;;;;6196842;28;20030;-71
2021/11/12 17:05:42;;;;;;;1.08;0.95;;;21.30;53.80;;;;;;6195980;28;20054;-71
2021/11/12 17:09:18;;;;;;;1.20;1.02;;;21.30;53.70;;;;;;6196567;28;20050;-70
2021/11/12 17:15:26;;;;;;;1.70;1.15;;;21.30;53.70;;;;;;6193683;28;20031;-71
2021/11/12 17:48:09;;;;;;;1.65;1.05;;;21.30;53.70;;;;;;6208187;28;20034;-71
2021/11/12 18:04:28;;;;;;;1.80;1.27;;;21.30;53.70;;;;;;6182276;28;20597;-71
2021/11/12 18:14:02;;;;;;;1.58;1.30;;;21.30;53.70;;;;;;6208635;28;20050;-71
2021/11/12 18:17:34;;;;;;;2.40;1.63;;;21.30;53.80;;;;;;6198196;28;20435;-71
2021/11/12 21:47:53;;;;;;;3.85;3.03;;;21.30;53.70;;;;;;6220862;28;20419;-68
2021/11/12 21:50:57;;;;;;;3.78;3.08;;;21.20;53.60;;;;;;6221132;28;20044;-68
2021/11/12 21:54:01;;;;;;;5.68;3.47;;;21.30;53.70;;;;;;6220587;28;20036;-68
2021/11/12 21:57:01;;;;;;;4.60;3.38;;;21.30;53.70;;;;;;6216010;28;20033;-68
2021/11/12 22:00:06;;;;;;;5.22;3.35;;;21.30;53.70;;;;;;6196095;28;20026;-68
2021/11/12 22:03:07;;;;;;;3.45;2.85;;;21.30;53.70;;;;;;6207576;28;20482;-68
2021/11/12 22:06:08;;;;;;;3.92;3.00;;;21.30;53.70;;;;;;6220365;28;20042;-68
2021/11/12 22:09:08;;;;;;;3.75;3.15;;;21.30;53.70;;;;;;6220298;28;20116;-68
2021/11/12 22:12:09;;;;;;;4.55;3.33;;;21.30;53.70;;;;;;6219988;28;20042;-68
2021/11/12 22:15:11;;;;;;;4.45;3.30;;;21.30;53.70;;;;;;6196516;28;20034;-68
2021/11/12 22:18:11;;;;;;;4.53;3.22;;;21.20;53.60;;;;;;6203290;28;20014;-68
2021/11/12 22:21:13;;;;;;;3.95;3.30;;;21.30;53.60;;;;;;6220313;28;20036;-68
2021/11/12 22:24:13;;;;;;;4.50;3.42;;;21.30;53.70;;;;;;6218545;28;20307;-68
2021/11/12 22:27:14;;;;;;;4.80;3.72;;;21.30;53.70;;;;;;6216599;28;20033;-68
2021/11/12 22:30:15;;;;;;;5.75;4.22;;;21.30;53.70;;;;;;6186633;28;20519;-68
2021/11/12 22:33:16;;;;;;;5.28;3.75;;;21.20;53.60;;;;;;6208476;28;20041;-68
2021/11/12 22:36:17;;;;;;;4.20;3.38;;;21.20;53.60;;;;;;6219500;28;20018;-68
2021/11/12 22:39:18;;;;;;;4.97;3.75;;;21.20;53.50;;;;;;6220017;28;20040;-68
2021/11/12 22:42:18;;;;;;;5.07;3.70;;;21.30;53.70;;;;;;6218323;28;20026;-69
2021/11/12 22:45:19;;;;;;;4.05;3.25;;;21.20;53.60;;;;;;6234620;28;20033;-68
2021/11/12 22:48:20;;;;;;;4.20;3.45;;;21.20;53.60;;;;;;6217804;28;20583;-68
2021/11/12 22:51:21;;;;;;;5.88;3.90;;;21.20;53.60;;;;;;6219650;28;20032;-68
2021/11/12 22:54:24;;;;;;;5.43;4.10;;;21.20;53.60;;;;;;6219251;28;20447;-69
2021/11/12 22:57:24;;;;;;;4.22;3.30;;;21.20;53.60;;;;;;6218292;28;20018;-68
2021/11/12 23:00:31;;;;;;;5.20;3.55;;;21.20;53.60;;;;;;6219454;28;20026;-68
2021/11/12 23:03:31;;;;;;;4.13;3.67;;;21.20;53.60;;;;;;6218936;28;20550;-69
2021/11/12 23:06:32;;;;;;;6.20;3.72;;;21.20;53.60;;;;;;6217918;28;20032;-68
2021/11/12 23:09:33;;;;;;;4.85;3.80;;;21.20;53.60;;;;;;6217828;28;20021;-68
2021/11/12 23:12:34;;;;;;;5.05;3.75;;;21.20;53.50;;;;;;6215757;28;20045;-68
2021/11/12 23:15:35;;;;;;;5.47;4.22;;;21.20;53.50;;;;;;6193420;28;20542;-68
2021/11/12 23:18:36;;;;;;;5.00;3.53;;;21.20;53.50;;;;;;6193066;28;20034;-68
2021/11/12 23:21:36;;;;;;;4.70;3.92;;;21.20;53.50;;;;;;6192886;28;20025;-69
2021/11/12 23:24:37;;;;;;;5.20;3.75;;;21.20;53.50;;;;;;6212875;28;20018;-68
2021/11/12 23:27:38;;;;;;;5.68;4.32;;;21.20;53.50;;;;;;6203902;28;20496;-68
2021/11/12 23:30:40;;;;;;;5.47;4.03;;;21.20;53.50;;;;;;6182475;28;20039;-68
2021/11/12 23:33:41;;;;;;;5.82;4.13;;;21.20;53.50;;;;;;6192062;28;20054;-68
2021/11/12 23:36:41;;;;;;;5.30;3.90;;;21.20;53.50;;;;;;6198850;28;20018;-68
2021/11/12 23:39:42;;;;;;;4.90;3.60;;;21.20;53.50;;;;;;6218194;28;20029;-68
2021/11/12 23:42:44;;;;;;;5.15;3.88;;;21.20;53.50;;;;;;6220760;28;20085;-68
2021/11/12 23:45:45;;;;;;;5.93;4.15;;;21.20;53.70;;;;;;6193794;28;20029;-68
2021/11/12 23:48:45;;;;;;;4.78;3.85;;;21.20;53.50;;;;;;6228583;28;20030;-68
2021/11/12 23:51:47;;;;;;;4.35;3.70;;;21.20;53.50;;;;;;6213294;28;20042;-68
2021/11/12 23:54:47;;;;;;;4.65;3.75;;;21.20;53.50;;;;;;6208590;28;20113;-68
2021/11/12 23:57:49;;;;;;;5.28;4.28;;;21.20;53.50;;;;;;6202679;28;20559;-69
